METAR Formatted Surface Weather Observation
Issued by NWS

Home | Current Version | Previous Version | Text Only | Print | Product List | Glossary On
Versions: 1 2 3 4 5 6 7 8 9 10 11 12 13 14 15 16 17 18
000
SAUS41 KGYX 242348 COR
MTRNKT
SPECI KNKT 242346Z 13014G24KT 1/2SM +RA BKN010 OVC015 20/18 A2969
RMK AO2 SFC VIS 10 P0027 T02000183



USA.gov is the U.S. government's official web portal to all federal, state and local government web resources and services.